createdAt,value
2022-07-29T00:04:15.981Z,66.99
2022-07-29T00:09:16.467Z,66.82
2022-07-29T00:14:16.374Z,67.20
2022-07-29T00:19:20.291Z,68.09
2022-07-29T00:24:16.146Z,68.00
2022-07-29T00:29:33.759Z,68.24
2022-07-29T00:34:25.671Z,68.60
2022-07-29T00:39:15.594Z,68.99
2022-07-29T00:44:16.207Z,69.61
2022-07-29T00:49:15.800Z,69.79
2022-07-29T00:54:16.260Z,70.10
2022-07-29T00:59:15.567Z,70.62
2022-07-29T01:04:16.513Z,70.15
2022-07-29T01:09:17.222Z,69.89
2022-07-29T01:14:16.665Z,70.33
2022-07-29T01:19:33.893Z,70.30
2022-07-29T01:24:32.827Z,70.55
2022-07-29T01:29:23.558Z,70.52
2022-07-29T01:34:27.186Z,70.67
2022-07-29T01:39:19.940Z,70.73
2022-07-29T01:44:30.739Z,71.05
2022-07-29T01:49:20.233Z,71.23
2022-07-29T01:54:20.246Z,71.40
2022-07-29T01:59:17.569Z,71.60
2022-07-29T02:04:29.765Z,71.84
2022-07-29T02:09:17.670Z,72.23
2022-07-29T02:14:19.023Z,72.07
2022-07-29T02:19:18.435Z,72.87
2022-07-29T02:24:18.933Z,73.20
2022-07-29T02:29:19.894Z,73.79
2022-07-29T02:34:18.461Z,73.49
2022-07-29T02:39:17.364Z,73.98
2022-07-29T02:44:18.336Z,74.03
2022-07-29T02:49:19.427Z,74.22
2022-07-29T02:54:22.488Z,74.31
2022-07-29T02:59:26.137Z,75.21
2022-07-29T03:04:17.595Z,75.16
2022-07-29T03:09:20.906Z,75.46
2022-07-29T03:14:19.625Z,75.51
2022-07-29T03:19:18.560Z,75.90
2022-07-29T03:24:27.688Z,76.29
2022-07-29T03:29:15.436Z,76.58
2022-07-29T03:34:17.072Z,77.37
2022-07-29T03:39:20.530Z,77.19
2022-07-29T03:44:18.456Z,77.26
2022-07-29T03:49:17.122Z,78.09
2022-07-29T03:54:16.596Z,78.55
2022-07-29T03:59:18.006Z,79.54
2022-07-29T04:04:16.923Z,79.03
2022-07-29T04:09:15.609Z,79.80
2022-07-29T04:14:15.887Z,79.35
2022-07-29T04:19:16.204Z,79.81
2022-07-29T04:24:16.521Z,78.91
2022-07-29T04:29:15.548Z,79.36
2022-07-29T04:34:16.492Z,79.51
2022-07-29T04:39:20.646Z,78.97
2022-07-29T04:44:18.277Z,78.46
2022-07-29T04:49:15.850Z,78.39
2022-07-29T04:54:16.020Z,78.10
2022-07-29T04:59:16.115Z,78.14
2022-07-29T04:59:22.470Z,78.14
2022-07-29T05:02:35.589Z,77.40
2022-07-29T05:04:15.590Z,77.40
2022-07-29T05:05:15.253Z,77.24
2022-07-29T05:08:35.300Z,77.24
2022-07-29T05:09:15.453Z,77.24
2022-07-29T05:14:16.321Z,76.90
2022-07-29T05:19:15.450Z,76.68
2022-07-29T05:24:15.676Z,75.65
2022-07-29T05:29:44.892Z,75.38
2022-07-29T05:34:16.252Z,74.56
2022-07-29T05:37:15.370Z,73.78
2022-07-29T05:39:15.441Z,73.78
2022-07-29T05:43:53.770Z,72.70
2022-07-29T05:44:15.772Z,72.70
2022-07-29T05:46:03.649Z,71.32
2022-07-29T05:49:27.102Z,71.32
2022-07-29T05:54:16.285Z,70.33
2022-07-29T05:59:18.224Z,70.24
2022-07-29T06:01:21.438Z,69.34
2022-07-29T06:04:15.711Z,69.34
2022-07-29T06:09:18.494Z,68.11
2022-07-29T06:09:38.221Z,68.11
2022-07-29T06:14:16.040Z,66.67
2022-07-29T06:18:13.586Z,65.58
2022-07-29T06:19:15.743Z,65.58
2022-07-29T06:19:40.263Z,65.58
2022-07-29T06:24:16.465Z,65.29
2022-07-29T06:26:37.823Z,63.77
2022-07-29T06:29:15.733Z,63.77
2022-07-29T06:30:52.351Z,62.21
2022-07-29T06:34:16.490Z,62.21
2022-07-29T06:36:43.725Z,61.08
2022-07-29T06:39:15.476Z,61.08
2022-07-29T06:44:17.085Z,60.51
2022-07-29T06:49:15.592Z,59.16
2022-07-29T06:54:15.953Z,57.93
2022-07-29T06:55:07.819Z,56.27
2022-07-29T06:59:15.489Z,56.27
2022-07-29T07:04:15.875Z,55.60
2022-07-29T07:09:15.628Z,54.20
2022-07-29T07:14:15.750Z,52.38
2022-07-29T07:19:15.773Z,51.40
2022-07-29T07:24:16.107Z,50.94
2022-07-29T07:29:15.803Z,49.15
2022-07-29T07:34:29.308Z,47.72
2022-07-29T07:39:15.569Z,46.59
2022-07-29T07:44:16.205Z,45.07
2022-07-29T07:49:16.162Z,43.50
2022-07-29T07:54:15.988Z,42.09
2022-07-29T07:59:15.878Z,41.18
2022-07-29T08:04:16.665Z,40.14
2022-07-29T08:09:28.805Z,39.69
2022-07-29T08:14:15.793Z,38.36
2022-07-29T08:19:16.142Z,36.80
2022-07-29T08:24:25.701Z,36.02
2022-07-29T08:29:19.912Z,35.23
2022-07-29T08:34:16.717Z,34.23
2022-07-29T08:39:15.361Z,33.84
2022-07-29T08:44:16.363Z,32.98
2022-07-29T08:49:16.353Z,32.64
2022-07-29T08:54:17.729Z,31.24
2022-07-29T08:59:21.991Z,33.06
2022-07-29T09:04:16.237Z,32.09
2022-07-29T09:09:15.555Z,31.24
2022-07-29T09:14:16.749Z,30.64
2022-07-29T09:19:26.207Z,30.70
2022-07-29T09:24:16.037Z,30.35
2022-07-29T09:29:17.705Z,31.36
2022-07-29T09:34:20.810Z,31.66
2022-07-29T09:39:27.643Z,33.82
2022-07-29T09:44:16.266Z,32.75
2022-07-29T09:49:15.437Z,33.12
2022-07-29T09:54:25.610Z,32.73
2022-07-29T09:59:15.928Z,31.81
2022-07-29T10:09:18.278Z,34.20
2022-07-29T10:14:15.516Z,35.08
2022-07-29T10:19:17.338Z,34.76
2022-07-29T10:24:15.809Z,35.34
2022-07-29T10:29:15.614Z,35.12
2022-07-29T10:34:23.353Z,35.58
2022-07-29T10:39:23.947Z,35.34
2022-07-29T10:44:19.537Z,34.49
2022-07-29T10:49:17.532Z,35.40
2022-07-29T10:54:15.782Z,35.60
2022-07-29T10:59:24.217Z,34.62
2022-07-29T11:04:16.103Z,34.61
2022-07-29T11:09:17.552Z,34.59
2022-07-29T11:14:17.442Z,35.25
2022-07-29T11:19:26.351Z,35.51
2022-07-29T11:24:18.718Z,34.93
2022-07-29T11:29:20.078Z,35.45
2022-07-29T11:34:21.295Z,34.70
2022-07-29T11:39:25.723Z,35.37
2022-07-29T11:44:16.153Z,35.46
2022-07-29T11:49:22.075Z,36.44
2022-07-29T11:59:17.729Z,35.94
2022-07-29T12:04:15.336Z,36.33
2022-07-29T12:07:03.582Z,36.01
2022-07-29T12:09:15.766Z,36.04
2022-07-29T12:14:26.250Z,36.38
2022-07-29T12:19:15.193Z,36.88
2022-07-29T12:24:16.946Z,35.75
2022-07-29T12:29:20.175Z,36.67
2022-07-29T12:34:16.068Z,35.97
2022-07-29T12:39:16.173Z,35.74
2022-07-29T12:44:15.312Z,35.30
2022-07-29T12:49:24.886Z,35.62
2022-07-29T12:54:15.717Z,35.57
2022-07-29T12:59:22.146Z,36.09
2022-07-29T13:04:26.735Z,35.61
2022-07-29T13:09:18.048Z,36.10
2022-07-29T13:14:30.573Z,36.58
2022-07-29T13:19:15.181Z,36.62
2022-07-29T13:24:19.783Z,36.65
2022-07-29T13:29:15.166Z,36.55
2022-07-29T13:34:15.448Z,36.80
2022-07-29T13:39:16.403Z,36.64
2022-07-29T13:44:15.197Z,35.95
2022-07-29T13:49:15.404Z,36.04
2022-07-29T13:52:10.886Z,35.45
2022-07-29T13:54:15.718Z,35.45
2022-07-29T13:59:15.370Z,35.89
2022-07-29T14:04:15.668Z,35.15
2022-07-29T14:04:23.180Z,35.15
2022-07-29T14:06:47.243Z,34.77
2022-07-29T14:09:21.260Z,34.77
2022-07-29T14:10:27.165Z,34.77
2022-07-29T14:12:45.330Z,34.77
2022-07-29T14:14:15.228Z,34.77
2022-07-29T14:19:15.481Z,35.27
2022-07-29T14:22:09.298Z,34.56
2022-07-29T14:24:22.927Z,34.56
2022-07-29T14:27:39.203Z,34.65
2022-07-29T14:29:15.164Z,34.65
2022-07-29T14:31:52.398Z,35.51
2022-07-29T14:34:15.727Z,35.51
2022-07-29T14:39:16.498Z,35.38
2022-07-29T14:44:15.542Z,35.47
2022-07-29T14:49:15.541Z,35.03
2022-07-29T14:54:15.197Z,35.27
2022-07-29T14:59:15.888Z,35.54
2022-07-29T15:04:15.197Z,35.27
2022-07-29T15:09:15.402Z,34.83
2022-07-29T15:14:16.373Z,35.33
2022-07-29T15:19:15.222Z,35.42
2022-07-29T15:24:15.998Z,35.18
2022-07-29T15:29:15.894Z,35.17
2022-07-29T15:34:15.595Z,35.51
2022-07-29T15:39:15.171Z,35.48
2022-07-29T15:44:16.087Z,35.79
2022-07-29T15:49:20.745Z,35.91
2022-07-29T15:54:16.582Z,35.91
2022-07-29T15:59:22.525Z,36.23
2022-07-29T16:04:16.324Z,36.66
2022-07-29T16:09:16.174Z,36.82
2022-07-29T16:14:16.271Z,37.49
2022-07-29T16:19:15.210Z,37.39
2022-07-29T16:24:15.303Z,37.47
2022-07-29T16:29:17.124Z,37.38
2022-07-29T16:34:15.118Z,37.37
2022-07-29T16:39:15.087Z,37.53
2022-07-29T16:44:15.857Z,37.88
2022-07-29T16:49:19.507Z,37.67
2022-07-29T16:54:15.481Z,37.62
2022-07-29T16:59:15.327Z,37.46
2022-07-29T17:04:15.273Z,37.85
2022-07-29T17:09:15.551Z,37.71
2022-07-29T17:14:15.714Z,37.62
2022-07-29T17:19:15.039Z,37.52
2022-07-29T17:24:18.139Z,37.88
2022-07-29T17:29:16.106Z,38.11
2022-07-29T17:34:15.557Z,38.60
2022-07-29T17:34:53.113Z,38.60
2022-07-29T17:37:03.703Z,39.23
2022-07-29T17:39:15.295Z,39.23
2022-07-29T17:41:45.703Z,39.74
2022-07-29T17:44:15.135Z,39.74
2022-07-29T17:46:59.509Z,40.10
2022-07-29T17:48:48.535Z,40.10
2022-07-29T17:49:15.348Z,40.10
2022-07-29T17:52:19.486Z,40.68
2022-07-29T17:54:15.276Z,40.68
2022-07-29T17:55:02.597Z,40.81
2022-07-29T17:59:15.770Z,40.81
2022-07-29T18:02:13.663Z,41.18
2022-07-29T18:04:19.094Z,41.18
2022-07-29T18:04:22.149Z,41.18
2022-07-29T18:04:22.735Z,41.18
2022-07-29T18:07:13.099Z,41.60
2022-07-29T18:09:15.435Z,41.60
2022-07-29T18:14:16.059Z,42.11
2022-07-29T18:19:15.607Z,42.67
2022-07-29T18:21:15.097Z,43.05
2022-07-29T18:24:15.049Z,43.05
2022-07-29T18:28:19.680Z,43.32
2022-07-29T18:29:15.116Z,43.32
2022-07-29T18:31:06.386Z,43.43
2022-07-29T18:34:16.041Z,43.43
2022-07-29T18:39:20.056Z,43.75
2022-07-29T18:44:16.624Z,44.23
2022-07-29T18:49:19.569Z,44.86
2022-07-29T18:52:13.143Z,45.37
2022-07-29T18:54:16.380Z,45.37
2022-07-29T18:59:15.948Z,45.41
2022-07-29T19:04:16.558Z,45.57
2022-07-29T19:09:16.241Z,45.54
2022-07-29T19:14:15.248Z,45.73
2022-07-29T19:19:16.138Z,45.77
2022-07-29T19:24:15.594Z,45.87
2022-07-29T19:29:19.163Z,45.79
2022-07-29T19:34:15.114Z,45.76
2022-07-29T19:39:15.218Z,45.89
2022-07-29T19:44:15.778Z,45.97
2022-07-29T19:49:15.838Z,45.91
2022-07-29T19:54:17.151Z,46.20
2022-07-29T19:59:16.102Z,46.48
2022-07-29T20:04:15.238Z,46.44
2022-07-29T20:09:17.060Z,46.59
2022-07-29T20:14:18.864Z,47.11
2022-07-29T20:19:15.825Z,47.15
2022-07-29T20:24:15.149Z,47.42
2022-07-29T20:29:16.234Z,47.53
2022-07-29T20:34:16.579Z,47.72
2022-07-29T20:39:15.190Z,48.14
2022-07-29T20:44:17.990Z,48.36
2022-07-29T20:49:15.129Z,48.25
2022-07-29T20:54:16.771Z,48.30
2022-07-29T20:59:15.050Z,48.66
2022-07-29T21:04:15.745Z,48.64
2022-07-29T21:09:15.229Z,48.91
2022-07-29T21:14:25.394Z,49.17
2022-07-29T21:19:14.976Z,49.33
2022-07-29T21:24:15.298Z,49.38
2022-07-29T21:29:15.076Z,49.85
2022-07-29T21:34:15.167Z,49.78
2022-07-29T21:39:19.794Z,49.90
2022-07-29T21:44:15.067Z,50.32
2022-07-29T21:49:15.239Z,50.29
2022-07-29T21:54:15.890Z,50.60
2022-07-29T21:59:15.023Z,50.29
2022-07-29T22:04:15.109Z,50.65
2022-07-29T22:09:15.681Z,51.14
2022-07-29T22:14:17.294Z,51.04
2022-07-29T22:19:15.264Z,51.22
2022-07-29T22:22:58.687Z,51.22
2022-07-29T22:24:14.924Z,51.22
2022-07-29T22:26:57.321Z,51.62
2022-07-29T22:29:16.664Z,51.62
2022-07-29T22:34:15.073Z,51.93
2022-07-29T22:39:15.547Z,52.26
2022-07-29T22:44:15.083Z,52.20
2022-07-29T22:49:15.362Z,52.44
2022-07-29T22:51:46.121Z,52.41
2022-07-29T22:54:14.949Z,52.41
2022-07-29T22:54:15.950Z,52.41
2022-07-29T22:59:15.018Z,52.73
2022-07-29T23:04:22.618Z,52.53
2022-07-29T23:09:15.345Z,52.66
2022-07-29T23:13:41.224Z,53.24
2022-07-29T23:14:15.650Z,53.24
2022-07-29T23:19:15.655Z,53.33
2022-07-29T23:24:14.988Z,53.40
2022-07-29T23:29:14.958Z,53.89
2022-07-29T23:34:16.121Z,54.17
2022-07-29T23:39:14.963Z,54.41
2022-07-29T23:41:36.678Z,53.75
2022-07-29T23:44:14.925Z,53.75
2022-07-29T23:49:16.169Z,54.44
2022-07-29T23:54:14.944Z,54.48
2022-07-29T23:59:14.921Z,54.53
